sensor_id;sensor_type;location;lat;lon;timestamp;temperature;humidity
29713;DHT22;16623;53.632;10.016;2022-12-07T00:01:21;4.40;99.90
29713;DHT22;16623;53.632;10.016;2022-12-07T00:03:48;4.40;99.90
29713;DHT22;16623;53.632;10.016;2022-12-07T00:06:16;4.40;99.90
29713;DHT22;16623;53.632;10.016;2022-12-07T00:08:42;4.40;99.90
29713;DHT22;16623;53.632;10.016;2022-12-07T00:11:10;4.30;99.90
29713;DHT22;16623;53.632;10.016;2022-12-07T00:13:36;4.30;99.90
29713;DHT22;16623;53.632;10.016;2022-12-07T00:16:10;4.30;99.90
29713;DHT22;16623;53.632;10.016;2022-12-07T00:18:36;4.20;99.90
29713;DHT22;16623;53.632;10.016;2022-12-07T00:21:10;4.30;99.90
29713;DHT22;16623;53.632;10.016;2022-12-07T00:23:37;4.30;99.90
29713;DHT22;16623;53.632;10.016;2022-12-07T00:28:38;4.40;99.90
29713;DHT22;16623;53.632;10.016;2022-12-07T00:31:04;4.40;99.90
29713;DHT22;16623;53.632;10.016;2022-12-07T00:33:31;4.30;99.90
29713;DHT22;16623;53.632;10.016;2022-12-07T00:35:58;4.30;99.90
29713;DHT22;16623;53.632;10.016;2022-12-07T00:38:24;4.30;99.90
29713;DHT22;16623;53.632;10.016;2022-12-07T00:40:57;4.40;99.90
29713;DHT22;16623;53.632;10.016;2022-12-07T00:43:23;4.30;99.90
29713;DHT22;16623;53.632;10.016;2022-12-07T00:45:48;4.30;99.90
29713;DHT22;16623;53.632;10.016;2022-12-07T00:48:14;4.30;99.90
29713;DHT22;16623;53.632;10.016;2022-12-07T00:50:39;4.30;99.90
29713;DHT22;16623;53.632;10.016;2022-12-07T00:53:05;4.30;99.90
29713;DHT22;16623;53.632;10.016;2022-12-07T00:55:34;4.20;99.90
29713;DHT22;16623;53.632;10.016;2022-12-07T00:58:00;4.20;99.90
29713;DHT22;16623;53.632;10.016;2022-12-07T01:00:25;4.30;99.90
29713;DHT22;16623;53.632;10.016;2022-12-07T01:02:52;4.30;99.90
29713;DHT22;16623;53.632;10.016;2022-12-07T01:05:17;4.30;99.90
29713;DHT22;16623;53.632;10.016;2022-12-07T01:07:43;4.30;99.90
29713;DHT22;16623;53.632;10.016;2022-12-07T01:10:09;4.30;99.90
29713;DHT22;16623;53.632;10.016;2022-12-07T01:12:34;4.30;99.90
29713;DHT22;16623;53.632;10.016;2022-12-07T01:15:00;4.30;99.90
29713;DHT22;16623;53.632;10.016;2022-12-07T01:17:25;4.40;99.90
29713;DHT22;16623;53.632;10.016;2022-12-07T01:19:51;4.40;99.90
29713;DHT22;16623;53.632;10.016;2022-12-07T01:22:16;4.40;99.90
29713;DHT22;16623;53.632;10.016;2022-12-07T01:24:42;4.40;99.90
29713;DHT22;16623;53.632;10.016;2022-12-07T01:27:07;4.40;99.90
29713;DHT22;16623;53.632;10.016;2022-12-07T01:29:33;4.40;99.90
29713;DHT22;16623;53.632;10.016;2022-12-07T01:31:59;4.30;99.90
29713;DHT22;16623;53.632;10.016;2022-12-07T01:34:24;4.30;99.90
29713;DHT22;16623;53.632;10.016;2022-12-07T01:36:50;4.30;99.90
29713;DHT22;16623;53.632;10.016;2022-12-07T01:39:15;4.30;99.90
29713;DHT22;16623;53.632;10.016;2022-12-07T01:41:41;4.30;99.90
29713;DHT22;16623;53.632;10.016;2022-12-07T01:47:04;4.30;99.90
29713;DHT22;16623;53.632;10.016;2022-12-07T01:49:40;4.20;99.90
29713;DHT22;16623;53.632;10.016;2022-12-07T01:52:23;4.20;99.90
29713;DHT22;16623;53.632;10.016;2022-12-07T01:54:59;4.10;99.90
29713;DHT22;16623;53.632;10.016;2022-12-07T01:57:26;4.10;99.90
29713;DHT22;16623;53.632;10.016;2022-12-07T01:59:53;4.10;99.90
29713;DHT22;16623;53.632;10.016;2022-12-07T02:02:30;4.10;99.90
29713;DHT22;16623;53.632;10.016;2022-12-07T02:04:57;4.00;99.90
29713;DHT22;16623;53.632;10.016;2022-12-07T02:07:25;3.90;99.90
29713;DHT22;16623;53.632;10.016;2022-12-07T02:09:52;4.00;99.90
29713;DHT22;16623;53.632;10.016;2022-12-07T02:12:17;3.90;99.90
29713;DHT22;16623;53.632;10.016;2022-12-07T02:14:43;3.90;99.90
29713;DHT22;16623;53.632;10.016;2022-12-07T02:17:46;3.90;99.90
29713;DHT22;16623;53.632;10.016;2022-12-07T02:20:31;3.80;99.90
29713;DHT22;16623;53.632;10.016;2022-12-07T02:29:10;3.80;99.90
29713;DHT22;16623;53.632;10.016;2022-12-07T02:31:41;3.80;99.90
29713;DHT22;16623;53.632;10.016;2022-12-07T02:34:14;3.80;99.90
29713;DHT22;16623;53.632;10.016;2022-12-07T02:36:44;3.80;99.90
29713;DHT22;16623;53.632;10.016;2022-12-07T02:39:20;3.80;99.90
29713;DHT22;16623;53.632;10.016;2022-12-07T02:41:52;3.70;99.90
29713;DHT22;16623;53.632;10.016;2022-12-07T02:44:23;3.70;99.90
29713;DHT22;16623;53.632;10.016;2022-12-07T02:46:54;3.70;99.90
29713;DHT22;16623;53.632;10.016;2022-12-07T02:49:22;3.70;99.90
29713;DHT22;16623;53.632;10.016;2022-12-07T02:51:47;3.70;99.90
29713;DHT22;16623;53.632;10.016;2022-12-07T02:54:15;3.70;99.90
29713;DHT22;16623;53.632;10.016;2022-12-07T03:01:49;3.60;99.90
29713;DHT22;16623;53.632;10.016;2022-12-07T03:04:43;3.60;99.90
29713;DHT22;16623;53.632;10.016;2022-12-07T03:10:09;3.60;99.90
29713;DHT22;16623;53.632;10.016;2022-12-07T03:15:33;3.50;99.90
29713;DHT22;16623;53.632;10.016;2022-12-07T03:21:26;3.40;99.90
29713;DHT22;16623;53.632;10.016;2022-12-07T03:23:55;3.40;99.90
29713;DHT22;16623;53.632;10.016;2022-12-07T03:26:26;3.40;99.90
29713;DHT22;16623;53.632;10.016;2022-12-07T03:28:59;3.30;99.90
29713;DHT22;16623;53.632;10.016;2022-12-07T03:31:33;3.30;99.90
29713;DHT22;16623;53.632;10.016;2022-12-07T03:34:11;3.30;99.90
29713;DHT22;16623;53.632;10.016;2022-12-07T03:36:52;3.30;99.90
29713;DHT22;16623;53.632;10.016;2022-12-07T03:39:37;3.20;99.90
29713;DHT22;16623;53.632;10.016;2022-12-07T03:42:05;3.20;99.90
29713;DHT22;16623;53.632;10.016;2022-12-07T03:44:33;3.20;99.90
29713;DHT22;16623;53.632;10.016;2022-12-07T03:47:06;3.20;99.90
29713;DHT22;16623;53.632;10.016;2022-12-07T03:49:50;3.20;99.90
29713;DHT22;16623;53.632;10.016;2022-12-07T03:55:14;3.10;99.90
29713;DHT22;16623;53.632;10.016;2022-12-07T03:57:45;3.20;99.90
29713;DHT22;16623;53.632;10.016;2022-12-07T04:00:13;3.20;99.90
29713;DHT22;16623;53.632;10.016;2022-12-07T04:02:39;3.20;99.90
29713;DHT22;16623;53.632;10.016;2022-12-07T04:05:05;3.20;99.90
29713;DHT22;16623;53.632;10.016;2022-12-07T04:07:31;3.10;99.90
29713;DHT22;16623;53.632;10.016;2022-12-07T04:09:57;3.10;99.90
29713;DHT22;16623;53.632;10.016;2022-12-07T04:12:22;3.00;99.90
29713;DHT22;16623;53.632;10.016;2022-12-07T04:14:48;3.00;99.90
29713;DHT22;16623;53.632;10.016;2022-12-07T04:17:14;3.10;99.90
29713;DHT22;16623;53.632;10.016;2022-12-07T04:19:40;3.00;99.90
29713;DHT22;16623;53.632;10.016;2022-12-07T04:22:06;2.90;99.90
29713;DHT22;16623;53.632;10.016;2022-12-07T04:24:32;3.00;99.90
29713;DHT22;16623;53.632;10.016;2022-12-07T04:26:58;2.90;99.90
29713;DHT22;16623;53.632;10.016;2022-12-07T04:29:23;2.90;99.90
29713;DHT22;16623;53.632;10.016;2022-12-07T04:31:49;2.90;99.90
29713;DHT22;16623;53.632;10.016;2022-12-07T04:34:16;2.90;99.90
29713;DHT22;16623;53.632;10.016;2022-12-07T04:36:42;2.90;99.90
29713;DHT22;16623;53.632;10.016;2022-12-07T04:41:52;2.90;99.90
29713;DHT22;16623;53.632;10.016;2022-12-07T04:44:18;2.90;99.90
29713;DHT22;16623;53.632;10.016;2022-12-07T04:46:44;2.80;99.90
29713;DHT22;16623;53.632;10.016;2022-12-07T04:49:10;2.80;99.90
29713;DHT22;16623;53.632;10.016;2022-12-07T04:51:36;2.80;99.90
29713;DHT22;16623;53.632;10.016;2022-12-07T04:54:02;2.80;99.90
29713;DHT22;16623;53.632;10.016;2022-12-07T04:56:27;2.70;99.90
29713;DHT22;16623;53.632;10.016;2022-12-07T04:58:54;2.80;99.90
29713;DHT22;16623;53.632;10.016;2022-12-07T05:01:21;2.80;99.90
29713;DHT22;16623;53.632;10.016;2022-12-07T05:03:47;2.70;99.90
29713;DHT22;16623;53.632;10.016;2022-12-07T05:06:12;2.80;99.90
29713;DHT22;16623;53.632;10.016;2022-12-07T05:08:38;2.70;99.90
29713;DHT22;16623;53.632;10.016;2022-12-07T05:11:05;2.70;99.90
29713;DHT22;16623;53.632;10.016;2022-12-07T05:13:31;2.70;99.90
29713;DHT22;16623;53.632;10.016;2022-12-07T05:15:57;2.70;99.90
29713;DHT22;16623;53.632;10.016;2022-12-07T05:18:23;2.70;99.90
29713;DHT22;16623;53.632;10.016;2022-12-07T05:20:49;2.60;99.90
29713;DHT22;16623;53.632;10.016;2022-12-07T05:23:16;2.60;99.90
29713;DHT22;16623;53.632;10.016;2022-12-07T05:25:41;2.60;99.90
29713;DHT22;16623;53.632;10.016;2022-12-07T05:28:07;2.60;99.90
29713;DHT22;16623;53.632;10.016;2022-12-07T05:30:33;2.60;99.90
29713;DHT22;16623;53.632;10.016;2022-12-07T05:32:58;2.70;99.90
29713;DHT22;16623;53.632;10.016;2022-12-07T05:35:24;2.70;99.90
29713;DHT22;16623;53.632;10.016;2022-12-07T05:37:50;2.70;99.90
29713;DHT22;16623;53.632;10.016;2022-12-07T05:40:15;2.70;99.90
29713;DHT22;16623;53.632;10.016;2022-12-07T05:42:41;2.60;99.90
29713;DHT22;16623;53.632;10.016;2022-12-07T05:45:08;2.70;99.90
29713;DHT22;16623;53.632;10.016;2022-12-07T05:47:35;2.70;99.90
29713;DHT22;16623;53.632;10.016;2022-12-07T05:50:01;2.70;99.90
29713;DHT22;16623;53.632;10.016;2022-12-07T05:52:26;2.70;99.90
29713;DHT22;16623;53.632;10.016;2022-12-07T05:54:52;2.70;99.90
29713;DHT22;16623;53.632;10.016;2022-12-07T05:57:18;2.70;99.90
29713;DHT22;16623;53.632;10.016;2022-12-07T05:59:44;2.70;99.90
29713;DHT22;16623;53.632;10.016;2022-12-07T06:02:12;2.80;99.90
29713;DHT22;16623;53.632;10.016;2022-12-07T06:04:41;2.80;99.90
29713;DHT22;16623;53.632;10.016;2022-12-07T06:07:07;2.70;99.90
29713;DHT22;16623;53.632;10.016;2022-12-07T06:09:34;2.70;99.90
29713;DHT22;16623;53.632;10.016;2022-12-07T06:12:00;2.70;99.90
29713;DHT22;16623;53.632;10.016;2022-12-07T06:14:44;2.60;99.90
29713;DHT22;16623;53.632;10.016;2022-12-07T06:17:11;2.60;99.90
29713;DHT22;16623;53.632;10.016;2022-12-07T06:19:37;2.60;99.90
29713;DHT22;16623;53.632;10.016;2022-12-07T06:22:04;2.50;99.90
29713;DHT22;16623;53.632;10.016;2022-12-07T06:24:30;2.50;99.90
29713;DHT22;16623;53.632;10.016;2022-12-07T06:26:56;2.50;99.90
29713;DHT22;16623;53.632;10.016;2022-12-07T06:29:22;2.50;99.90
29713;DHT22;16623;53.632;10.016;2022-12-07T06:31:48;2.50;99.90
29713;DHT22;16623;53.632;10.016;2022-12-07T06:34:16;2.40;99.90
29713;DHT22;16623;53.632;10.016;2022-12-07T06:36:42;2.40;99.90
29713;DHT22;16623;53.632;10.016;2022-12-07T06:39:09;2.40;99.90
29713;DHT22;16623;53.632;10.016;2022-12-07T06:41:36;2.40;99.90
29713;DHT22;16623;53.632;10.016;2022-12-07T06:44:04;2.40;99.90
29713;DHT22;16623;53.632;10.016;2022-12-07T06:46:29;2.30;99.90
29713;DHT22;16623;53.632;10.016;2022-12-07T06:48:55;2.40;99.90
29713;DHT22;16623;53.632;10.016;2022-12-07T06:51:21;2.40;99.90
29713;DHT22;16623;53.632;10.016;2022-12-07T06:53:46;2.50;99.90
29713;DHT22;16623;53.632;10.016;2022-12-07T06:56:12;2.40;99.90
29713;DHT22;16623;53.632;10.016;2022-12-07T06:58:39;2.50;99.90
29713;DHT22;16623;53.632;10.016;2022-12-07T07:01:12;2.50;99.90
29713;DHT22;16623;53.632;10.016;2022-12-07T07:03:38;2.50;99.90
29713;DHT22;16623;53.632;10.016;2022-12-07T07:06:05;2.50;99.90
29713;DHT22;16623;53.632;10.016;2022-12-07T07:08:31;2.50;99.90
29713;DHT22;16623;53.632;10.016;2022-12-07T07:10:57;2.60;99.90
29713;DHT22;16623;53.632;10.016;2022-12-07T07:13:22;2.60;99.90
29713;DHT22;16623;53.632;10.016;2022-12-07T07:15:48;2.60;99.90
29713;DHT22;16623;53.632;10.016;2022-12-07T07:18:13;2.60;99.90
29713;DHT22;16623;53.632;10.016;2022-12-07T07:20:39;2.70;99.90
29713;DHT22;16623;53.632;10.016;2022-12-07T07:23:05;2.70;99.90
29713;DHT22;16623;53.632;10.016;2022-12-07T07:25:31;2.70;99.90
29713;DHT22;16623;53.632;10.016;2022-12-07T07:27:57;2.70;99.90
29713;DHT22;16623;53.632;10.016;2022-12-07T07:30:22;2.70;99.90
29713;DHT22;16623;53.632;10.016;2022-12-07T07:32:48;2.80;99.90
29713;DHT22;16623;53.632;10.016;2022-12-07T07:35:14;2.80;99.90
29713;DHT22;16623;53.632;10.016;2022-12-07T07:37:40;2.80;99.90
29713;DHT22;16623;53.632;10.016;2022-12-07T07:40:06;2.80;99.90
29713;DHT22;16623;53.632;10.016;2022-12-07T07:42:32;2.80;99.90
29713;DHT22;16623;53.632;10.016;2022-12-07T07:44:57;2.80;99.90
29713;DHT22;16623;53.632;10.016;2022-12-07T07:47:23;2.90;99.90
29713;DHT22;16623;53.632;10.016;2022-12-07T07:49:49;3.00;99.90
29713;DHT22;16623;53.632;10.016;2022-12-07T07:52:14;2.90;99.90
29713;DHT22;16623;53.632;10.016;2022-12-07T07:54:41;3.00;99.90
29713;DHT22;16623;53.632;10.016;2022-12-07T07:57:07;3.00;99.90
29713;DHT22;16623;53.632;10.016;2022-12-07T07:59:32;3.00;99.90
29713;DHT22;16623;53.632;10.016;2022-12-07T08:01:58;3.00;99.90
29713;DHT22;16623;53.632;10.016;2022-12-07T08:04:23;3.10;99.90
29713;DHT22;16623;53.632;10.016;2022-12-07T08:06:49;3.10;99.90
29713;DHT22;16623;53.632;10.016;2022-12-07T08:09:14;3.00;99.90
29713;DHT22;16623;53.632;10.016;2022-12-07T08:11:40;3.10;99.90
29713;DHT22;16623;53.632;10.016;2022-12-07T08:14:05;3.10;99.90
29713;DHT22;16623;53.632;10.016;2022-12-07T08:16:31;3.20;99.90
29713;DHT22;16623;53.632;10.016;2022-12-07T08:18:57;3.20;99.90
29713;DHT22;16623;53.632;10.016;2022-12-07T08:21:22;3.20;99.90
29713;DHT22;16623;53.632;10.016;2022-12-07T08:23:48;3.20;99.90
29713;DHT22;16623;53.632;10.016;2022-12-07T08:26:15;3.20;99.90
29713;DHT22;16623;53.632;10.016;2022-12-07T08:28:41;3.30;99.90
29713;DHT22;16623;53.632;10.016;2022-12-07T08:31:10;3.30;99.90
29713;DHT22;16623;53.632;10.016;2022-12-07T08:33:37;3.40;99.90
29713;DHT22;16623;53.632;10.016;2022-12-07T08:36:10;3.30;99.90
29713;DHT22;16623;53.632;10.016;2022-12-07T08:38:37;3.40;99.90
29713;DHT22;16623;53.632;10.016;2022-12-07T08:41:04;3.40;99.90
29713;DHT22;16623;53.632;10.016;2022-12-07T08:43:30;3.40;99.90
29713;DHT22;16623;53.632;10.016;2022-12-07T08:48:27;3.50;99.90
29713;DHT22;16623;53.632;10.016;2022-12-07T08:50:53;3.60;99.90
29713;DHT22;16623;53.632;10.016;2022-12-07T08:53:18;3.50;99.90
29713;DHT22;16623;53.632;10.016;2022-12-07T08:55:47;3.60;99.90
29713;DHT22;16623;53.632;10.016;2022-12-07T08:58:13;3.60;99.90
29713;DHT22;16623;53.632;10.016;2022-12-07T09:00:39;3.60;99.90
29713;DHT22;16623;53.632;10.016;2022-12-07T09:03:04;3.60;99.90
29713;DHT22;16623;53.632;10.016;2022-12-07T09:05:30;3.70;99.90
29713;DHT22;16623;53.632;10.016;2022-12-07T09:07:59;3.70;99.90
29713;DHT22;16623;53.632;10.016;2022-12-07T09:10:26;3.70;99.90
29713;DHT22;16623;53.632;10.016;2022-12-07T09:12:52;3.80;99.90
29713;DHT22;16623;53.632;10.016;2022-12-07T09:15:17;3.80;99.90
29713;DHT22;16623;53.632;10.016;2022-12-07T09:17:42;3.90;99.90
29713;DHT22;16623;53.632;10.016;2022-12-07T09:20:08;3.90;99.90
29713;DHT22;16623;53.632;10.016;2022-12-07T09:22:34;3.90;99.90
29713;DHT22;16623;53.632;10.016;2022-12-07T09:25:00;3.90;99.90
29713;DHT22;16623;53.632;10.016;2022-12-07T09:27:27;4.00;99.90
29713;DHT22;16623;53.632;10.016;2022-12-07T09:29:56;3.90;99.90
29713;DHT22;16623;53.632;10.016;2022-12-07T09:32:22;3.90;99.90
29713;DHT22;16623;53.632;10.016;2022-12-07T09:34:48;4.00;99.90
29713;DHT22;16623;53.632;10.016;2022-12-07T09:37:13;4.20;99.90
29713;DHT22;16623;53.632;10.016;2022-12-07T09:39:40;4.20;99.90
29713;DHT22;16623;53.632;10.016;2022-12-07T09:42:06;4.30;99.90
29713;DHT22;16623;53.632;10.016;2022-12-07T09:44:48;4.30;99.90
29713;DHT22;16623;53.632;10.016;2022-12-07T09:47:13;4.30;99.90
29713;DHT22;16623;53.632;10.016;2022-12-07T09:49:39;4.40;99.90
29713;DHT22;16623;53.632;10.016;2022-12-07T09:54:35;4.50;99.90
29713;DHT22;16623;53.632;10.016;2022-12-07T09:57:02;4.40;99.90
29713;DHT22;16623;53.632;10.016;2022-12-07T09:59:27;4.50;99.90
29713;DHT22;16623;53.632;10.016;2022-12-07T10:01:53;4.50;99.90
29713;DHT22;16623;53.632;10.016;2022-12-07T10:04:26;4.50;99.90
29713;DHT22;16623;53.632;10.016;2022-12-07T10:06:52;4.60;99.90
29713;DHT22;16623;53.632;10.016;2022-12-07T10:09:20;4.50;99.90
29713;DHT22;16623;53.632;10.016;2022-12-07T10:12:18;4.60;99.90
29713;DHT22;16623;53.632;10.016;2022-12-07T10:15:05;4.60;99.90
29713;DHT22;16623;53.632;10.016;2022-12-07T10:17:37;4.60;99.90
29713;DHT22;16623;53.632;10.016;2022-12-07T10:20:25;4.60;99.90
29713;DHT22;16623;53.632;10.016;2022-12-07T10:23:03;4.60;99.90
29713;DHT22;16623;53.632;10.016;2022-12-07T10:25:49;4.70;99.90
29713;DHT22;16623;53.632;10.016;2022-12-07T10:28:20;4.70;99.90
29713;DHT22;16623;53.632;10.016;2022-12-07T10:31:15;4.70;99.90
29713;DHT22;16623;53.632;10.016;2022-12-07T10:33:57;4.80;99.90
29713;DHT22;16623;53.632;10.016;2022-12-07T10:39:20;4.80;99.90
29713;DHT22;16623;53.632;10.016;2022-12-07T10:42:19;4.90;99.90
29713;DHT22;16623;53.632;10.016;2022-12-07T10:44:46;4.80;99.90
29713;DHT22;16623;53.632;10.016;2022-12-07T10:47:36;4.80;99.90
29713;DHT22;16623;53.632;10.016;2022-12-07T10:50:29;4.90;99.90
29713;DHT22;16623;53.632;10.016;2022-12-07T10:53:20;4.90;99.90
29713;DHT22;16623;53.632;10.016;2022-12-07T10:56:11;4.90;99.90
29713;DHT22;16623;53.632;10.016;2022-12-07T11:02:22;5.00;99.90
29713;DHT22;16623;53.632;10.016;2022-12-07T11:05:06;5.00;99.90
29713;DHT22;16623;53.632;10.016;2022-12-07T11:08:05;5.10;99.90
29713;DHT22;16623;53.632;10.016;2022-12-07T11:29:47;5.10;99.90
29713;DHT22;16623;53.632;10.016;2022-12-07T11:38:02;5.20;99.90
29713;DHT22;16623;53.632;10.016;2022-12-07T11:40:35;5.20;99.90
29713;DHT22;16623;53.632;10.016;2022-12-07T11:43:13;5.30;99.90
29713;DHT22;16623;53.632;10.016;2022-12-07T11:45:42;5.30;99.90
29713;DHT22;16623;53.632;10.016;2022-12-07T11:48:16;5.30;99.90
29713;DHT22;16623;53.632;10.016;2022-12-07T11:50:46;5.20;99.90
29713;DHT22;16623;53.632;10.016;2022-12-07T11:53:28;5.30;99.90
29713;DHT22;16623;53.632;10.016;2022-12-07T11:56:00;5.30;99.90
29713;DHT22;16623;53.632;10.016;2022-12-07T12:03:46;5.40;99.90
29713;DHT22;16623;53.632;10.016;2022-12-07T12:06:13;5.40;99.90
29713;DHT22;16623;53.632;10.016;2022-12-07T12:08:50;5.50;99.90
29713;DHT22;16623;53.632;10.016;2022-12-07T12:11:35;5.50;99.90
29713;DHT22;16623;53.632;10.016;2022-12-07T12:14:32;5.50;99.90
29713;DHT22;16623;53.632;10.016;2022-12-07T12:17:07;5.50;99.90
29713;DHT22;16623;53.632;10.016;2022-12-07T12:22:23;5.50;99.90
29713;DHT22;16623;53.632;10.016;2022-12-07T12:24:53;5.50;99.90
29713;DHT22;16623;53.632;10.016;2022-12-07T12:27:24;5.50;99.90
29713;DHT22;16623;53.632;10.016;2022-12-07T12:29:54;5.40;99.90
29713;DHT22;16623;53.632;10.016;2022-12-07T12:32:24;5.50;99.90
29713;DHT22;16623;53.632;10.016;2022-12-07T12:35:47;5.50;99.90
29713;DHT22;16623;53.632;10.016;2022-12-07T12:37:49;5.50;99.90
29713;DHT22;16623;53.632;10.016;2022-12-07T12:42:51;5.60;99.90
29713;DHT22;16623;53.632;10.016;2022-12-07T12:45:29;5.60;99.90
29713;DHT22;16623;53.632;10.016;2022-12-07T12:47:59;5.60;99.90
29713;DHT22;16623;53.632;10.016;2022-12-07T13:00:45;5.60;99.90
29713;DHT22;16623;53.632;10.016;2022-12-07T13:03:30;5.60;99.90
29713;DHT22;16623;53.632;10.016;2022-12-07T13:08:53;5.60;99.90
29713;DHT22;16623;53.632;10.016;2022-12-07T13:11:39;5.50;99.90
29713;DHT22;16623;53.632;10.016;2022-12-07T13:20:00;5.40;99.90
29713;DHT22;16623;53.632;10.016;2022-12-07T13:25:30;5.40;99.90
29713;DHT22;16623;53.632;10.016;2022-12-07T13:33:17;5.50;99.90
29713;DHT22;16623;53.632;10.016;2022-12-07T13:35:43;5.60;99.90
29713;DHT22;16623;53.632;10.016;2022-12-07T13:38:24;5.50;99.90
29713;DHT22;16623;53.632;10.016;2022-12-07T13:41:29;5.60;99.90
29713;DHT22;16623;53.632;10.016;2022-12-07T13:44:05;5.50;99.90
29713;DHT22;16623;53.632;10.016;2022-12-07T13:46:43;5.50;99.90
29713;DHT22;16623;53.632;10.016;2022-12-07T13:49:26;5.50;99.90
29713;DHT22;16623;53.632;10.016;2022-12-07T13:51:53;5.40;99.90
29713;DHT22;16623;53.632;10.016;2022-12-07T13:54:19;5.40;99.90
29713;DHT22;16623;53.632;10.016;2022-12-07T13:56:49;5.40;99.90
29713;DHT22;16623;53.632;10.016;2022-12-07T13:59:23;5.50;99.90
29713;DHT22;16623;53.632;10.016;2022-12-07T14:01:50;5.40;99.90
29713;DHT22;16623;53.632;10.016;2022-12-07T14:04:28;5.40;99.90
29713;DHT22;16623;53.632;10.016;2022-12-07T14:06:54;5.30;99.90
29713;DHT22;16623;53.632;10.016;2022-12-07T14:09:22;5.30;99.90
29713;DHT22;16623;53.632;10.016;2022-12-07T14:11:49;5.20;99.90
29713;DHT22;16623;53.632;10.016;2022-12-07T14:14:24;5.10;99.90
29713;DHT22;16623;53.632;10.016;2022-12-07T14:19:45;4.90;99.90
29713;DHT22;16623;53.632;10.016;2022-12-07T14:24:58;4.90;99.90
29713;DHT22;16623;53.632;10.016;2022-12-07T14:27:24;4.90;99.90
29713;DHT22;16623;53.632;10.016;2022-12-07T14:29:56;4.90;99.90
29713;DHT22;16623;53.632;10.016;2022-12-07T14:32:27;4.80;99.90
29713;DHT22;16623;53.632;10.016;2022-12-07T14:35:09;4.80;99.90
29713;DHT22;16623;53.632;10.016;2022-12-07T14:37:36;4.70;99.90
29713;DHT22;16623;53.632;10.016;2022-12-07T14:40:02;4.60;99.90
29713;DHT22;16623;53.632;10.016;2022-12-07T14:42:29;4.60;99.90
29713;DHT22;16623;53.632;10.016;2022-12-07T14:44:57;4.50;99.90
29713;DHT22;16623;53.632;10.016;2022-12-07T14:47:23;4.40;99.90
29713;DHT22;16623;53.632;10.016;2022-12-07T14:49:48;4.40;99.90
29713;DHT22;16623;53.632;10.016;2022-12-07T14:52:27;4.40;99.90
29713;DHT22;16623;53.632;10.016;2022-12-07T14:54:55;4.40;99.90
29713;DHT22;16623;53.632;10.016;2022-12-07T14:57:21;4.30;99.90
29713;DHT22;16623;53.632;10.016;2022-12-07T14:59:46;4.30;99.90
29713;DHT22;16623;53.632;10.016;2022-12-07T15:02:13;2.60;99.90
29713;DHT22;16623;53.632;10.016;2022-12-07T15:04:39;4.30;99.90
29713;DHT22;16623;53.632;10.016;2022-12-07T15:07:09;4.20;99.90
29713;DHT22;16623;53.632;10.016;2022-12-07T15:09:37;4.20;99.90
29713;DHT22;16623;53.632;10.016;2022-12-07T15:12:02;4.00;99.90
29713;DHT22;16623;53.632;10.016;2022-12-07T15:14:28;4.00;99.90
29713;DHT22;16623;53.632;10.016;2022-12-07T15:16:54;4.00;99.90
29713;DHT22;16623;53.632;10.016;2022-12-07T15:19:23;4.00;99.90
29713;DHT22;16623;53.632;10.016;2022-12-07T15:21:51;3.80;99.90
29713;DHT22;16623;53.632;10.016;2022-12-07T15:24:17;3.80;99.90
29713;DHT22;16623;53.632;10.016;2022-12-07T15:26:43;3.90;99.90
29713;DHT22;16623;53.632;10.016;2022-12-07T15:29:10;3.80;99.90
29713;DHT22;16623;53.632;10.016;2022-12-07T15:31:36;3.70;99.90
29713;DHT22;16623;53.632;10.016;2022-12-07T15:34:02;3.70;99.90
29713;DHT22;16623;53.632;10.016;2022-12-07T15:36:30;3.70;99.90
29713;DHT22;16623;53.632;10.016;2022-12-07T15:38:56;3.60;99.90
29713;DHT22;16623;53.632;10.016;2022-12-07T15:41:21;3.50;99.90
29713;DHT22;16623;53.632;10.016;2022-12-07T15:43:47;3.50;99.90
29713;DHT22;16623;53.632;10.016;2022-12-07T15:46:32;3.50;99.90
29713;DHT22;16623;53.632;10.016;2022-12-07T15:48:59;3.50;99.90
29713;DHT22;16623;53.632;10.016;2022-12-07T15:51:25;3.50;99.90
29713;DHT22;16623;53.632;10.016;2022-12-07T15:53:51;3.30;99.90
29713;DHT22;16623;53.632;10.016;2022-12-07T15:56:16;3.30;99.90
29713;DHT22;16623;53.632;10.016;2022-12-07T15:58:42;3.10;99.90
29713;DHT22;16623;53.632;10.016;2022-12-07T16:01:16;3.20;99.90
29713;DHT22;16623;53.632;10.016;2022-12-07T16:03:42;3.10;99.90
29713;DHT22;16623;53.632;10.016;2022-12-07T16:06:08;3.10;99.90
29713;DHT22;16623;53.632;10.016;2022-12-07T16:08:33;3.10;99.90
29713;DHT22;16623;53.632;10.016;2022-12-07T16:10:59;3.00;99.90
29713;DHT22;16623;53.632;10.016;2022-12-07T16:13:24;3.10;99.90
29713;DHT22;16623;53.632;10.016;2022-12-07T16:15:50;3.00;99.90
29713;DHT22;16623;53.632;10.016;2022-12-07T16:18:15;3.00;99.90
29713;DHT22;16623;53.632;10.016;2022-12-07T16:20:41;3.00;99.90
29713;DHT22;16623;53.632;10.016;2022-12-07T16:23:07;3.00;99.90
29713;DHT22;16623;53.632;10.016;2022-12-07T16:25:33;3.00;99.90
29713;DHT22;16623;53.632;10.016;2022-12-07T16:27:58;3.00;99.90
29713;DHT22;16623;53.632;10.016;2022-12-07T16:30:24;2.90;99.90
29713;DHT22;16623;53.632;10.016;2022-12-07T16:32:51;2.90;99.90
29713;DHT22;16623;53.632;10.016;2022-12-07T16:35:16;2.90;99.90
29713;DHT22;16623;53.632;10.016;2022-12-07T16:37:43;2.90;99.90
29713;DHT22;16623;53.632;10.016;2022-12-07T16:40:09;3.00;99.90
29713;DHT22;16623;53.632;10.016;2022-12-07T16:42:35;2.90;99.90
29713;DHT22;16623;53.632;10.016;2022-12-07T16:45:01;3.00;99.90
29713;DHT22;16623;53.632;10.016;2022-12-07T16:47:27;2.90;99.90
29713;DHT22;16623;53.632;10.016;2022-12-07T16:49:53;2.90;99.90
29713;DHT22;16623;53.632;10.016;2022-12-07T16:52:19;2.90;99.90
29713;DHT22;16623;53.632;10.016;2022-12-07T16:54:45;2.80;99.90
29713;DHT22;16623;53.632;10.016;2022-12-07T16:57:10;2.80;99.90
29713;DHT22;16623;53.632;10.016;2022-12-07T16:59:37;2.80;99.90
29713;DHT22;16623;53.632;10.016;2022-12-07T17:02:03;2.80;99.90
29713;DHT22;16623;53.632;10.016;2022-12-07T17:04:29;1.70;99.90
29713;DHT22;16623;53.632;10.016;2022-12-07T17:06:54;2.80;99.90
29713;DHT22;16623;53.632;10.016;2022-12-07T17:09:20;2.80;99.90
29713;DHT22;16623;53.632;10.016;2022-12-07T17:14:12;2.80;99.90
29713;DHT22;16623;53.632;10.016;2022-12-07T17:16:56;2.80;99.90
29713;DHT22;16623;53.632;10.016;2022-12-07T17:19:22;2.70;99.90
29713;DHT22;16623;53.632;10.016;2022-12-07T17:21:47;2.90;99.90
29713;DHT22;16623;53.632;10.016;2022-12-07T17:24:15;2.70;99.90
29713;DHT22;16623;53.632;10.016;2022-12-07T17:26:42;2.70;99.90
29713;DHT22;16623;53.632;10.016;2022-12-07T17:29:08;2.70;99.90
29713;DHT22;16623;53.632;10.016;2022-12-07T17:31:36;2.80;99.90
29713;DHT22;16623;53.632;10.016;2022-12-07T17:34:02;2.70;99.90
29713;DHT22;16623;53.632;10.016;2022-12-07T17:36:29;2.70;99.90